PRINT OUT SECTION, show ยป

TAF AMD EPRA 170603Z 1706/1715 04008KT 9999 SCT040
PROB30 TEMPO 1713/1715 VRB15G28KT 4000 TSRA BKN030CB=

TAF EPSY 170530Z 1706/1715 10005KT CAVOK=

TAF EPZG 170530Z 1706/1715 VRB02KT CAVOK=

TAF EPZG 312300Z NIL=